sensor_id;sensor_type;location;lat;lon;timestamp;P1;durP1;ratioP1;P2;durP2;ratioP2
51332;SDS011;37417;48.118;11.734;2023-04-23T00:00:47;2.53;;;1.50;;
51332;SDS011;37417;48.118;11.734;2023-04-23T00:03:34;2.80;;;1.92;;
51332;SDS011;37417;48.118;11.734;2023-04-23T00:06:21;4.38;;;1.58;;
51332;SDS011;37417;48.118;11.734;2023-04-23T00:09:07;2.03;;;1.55;;
51332;SDS011;37417;48.118;11.734;2023-04-23T00:11:56;2.53;;;1.38;;
51332;SDS011;37417;48.118;11.734;2023-04-23T00:14:42;2.00;;;1.60;;
51332;SDS011;37417;48.118;11.734;2023-04-23T00:17:28;3.53;;;1.95;;
51332;SDS011;37417;48.118;11.734;2023-04-23T00:20:14;3.85;;;1.63;;
51332;SDS011;37417;48.118;11.734;2023-04-23T00:23:01;5.50;;;2.03;;
51332;SDS011;37417;48.118;11.734;2023-04-23T00:25:47;2.53;;;1.33;;
51332;SDS011;37417;48.118;11.734;2023-04-23T00:28:32;2.53;;;1.60;;
51332;SDS011;37417;48.118;11.734;2023-04-23T00:31:18;4.30;;;1.67;;
51332;SDS011;37417;48.118;11.734;2023-04-23T00:34:04;2.97;;;1.70;;
51332;SDS011;37417;48.118;11.734;2023-04-23T00:36:49;2.28;;;1.70;;
51332;SDS011;37417;48.118;11.734;2023-04-23T00:39:35;3.70;;;1.92;;
51332;SDS011;37417;48.118;11.734;2023-04-23T00:42:22;2.60;;;1.73;;
51332;SDS011;37417;48.118;11.734;2023-04-23T00:45:09;6.30;;;1.45;;
51332;SDS011;37417;48.118;11.734;2023-04-23T00:47:56;1.88;;;1.70;;
51332;SDS011;37417;48.118;11.734;2023-04-23T00:50:42;7.32;;;1.77;;
51332;SDS011;37417;48.118;11.734;2023-04-23T00:53:28;1.95;;;1.52;;
51332;SDS011;37417;48.118;11.734;2023-04-23T00:56:14;2.45;;;1.60;;
51332;SDS011;37417;48.118;11.734;2023-04-23T00:58:59;3.58;;;1.40;;
51332;SDS011;37417;48.118;11.734;2023-04-23T01:01:47;4.13;;;1.75;;
51332;SDS011;37417;48.118;11.734;2023-04-23T01:04:33;2.78;;;1.52;;
51332;SDS011;37417;48.118;11.734;2023-04-23T01:07:21;1.48;;;1.38;;
51332;SDS011;37417;48.118;11.734;2023-04-23T01:10:07;2.58;;;1.73;;
51332;SDS011;37417;48.118;11.734;2023-04-23T01:12:53;3.15;;;1.73;;
51332;SDS011;37417;48.118;11.734;2023-04-23T01:15:39;2.33;;;1.65;;
51332;SDS011;37417;48.118;11.734;2023-04-23T01:18:26;2.20;;;1.33;;
51332;SDS011;37417;48.118;11.734;2023-04-23T01:21:12;3.08;;;1.92;;
51332;SDS011;37417;48.118;11.734;2023-04-23T01:23:59;1.60;;;1.50;;
51332;SDS011;37417;48.118;11.734;2023-04-23T01:26:45;4.75;;;1.55;;
51332;SDS011;37417;48.118;11.734;2023-04-23T01:29:31;2.65;;;1.85;;
51332;SDS011;37417;48.118;11.734;2023-04-23T01:32:17;2.92;;;1.80;;
51332;SDS011;37417;48.118;11.734;2023-04-23T01:35:03;6.97;;;1.88;;
51332;SDS011;37417;48.118;11.734;2023-04-23T01:37:49;4.32;;;1.90;;
51332;SDS011;37417;48.118;11.734;2023-04-23T01:40:38;2.72;;;1.90;;
51332;SDS011;37417;48.118;11.734;2023-04-23T01:43:24;3.38;;;1.88;;
51332;SDS011;37417;48.118;11.734;2023-04-23T01:46:10;4.05;;;2.25;;
51332;SDS011;37417;48.118;11.734;2023-04-23T01:48:56;2.78;;;1.63;;
51332;SDS011;37417;48.118;11.734;2023-04-23T01:51:42;2.53;;;1.90;;
51332;SDS011;37417;48.118;11.734;2023-04-23T01:54:27;2.83;;;2.08;;
51332;SDS011;37417;48.118;11.734;2023-04-23T01:57:13;2.22;;;1.85;;
51332;SDS011;37417;48.118;11.734;2023-04-23T02:00:06;3.25;;;1.90;;
51332;SDS011;37417;48.118;11.734;2023-04-23T02:02:55;4.30;;;1.83;;
51332;SDS011;37417;48.118;11.734;2023-04-23T02:05:41;2.42;;;2.00;;
51332;SDS011;37417;48.118;11.734;2023-04-23T02:08:27;3.10;;;1.52;;
51332;SDS011;37417;48.118;11.734;2023-04-23T02:11:13;3.33;;;1.83;;
51332;SDS011;37417;48.118;11.734;2023-04-23T02:13:59;3.22;;;1.70;;
51332;SDS011;37417;48.118;11.734;2023-04-23T02:16:46;3.22;;;1.52;;
51332;SDS011;37417;48.118;11.734;2023-04-23T02:19:32;4.40;;;1.88;;
51332;SDS011;37417;48.118;11.734;2023-04-23T02:22:18;2.22;;;1.98;;
51332;SDS011;37417;48.118;11.734;2023-04-23T02:25:05;3.20;;;1.65;;
51332;SDS011;37417;48.118;11.734;2023-04-23T02:27:52;1.75;;;1.48;;
51332;SDS011;37417;48.118;11.734;2023-04-23T02:30:38;4.03;;;1.77;;
51332;SDS011;37417;48.118;11.734;2023-04-23T02:33:29;4.45;;;1.55;;
51332;SDS011;37417;48.118;11.734;2023-04-23T02:36:15;2.03;;;1.55;;
51332;SDS011;37417;48.118;11.734;2023-04-23T02:39:00;3.03;;;1.50;;
51332;SDS011;37417;48.118;11.734;2023-04-23T02:41:46;3.55;;;1.80;;
51332;SDS011;37417;48.118;11.734;2023-04-23T02:44:31;2.10;;;1.60;;
51332;SDS011;37417;48.118;11.734;2023-04-23T02:47:17;3.15;;;1.73;;
51332;SDS011;37417;48.118;11.734;2023-04-23T02:50:04;1.55;;;1.45;;
51332;SDS011;37417;48.118;11.734;2023-04-23T02:52:50;3.42;;;1.60;;
51332;SDS011;37417;48.118;11.734;2023-04-23T02:55:36;2.67;;;1.73;;
51332;SDS011;37417;48.118;11.734;2023-04-23T02:58:22;3.65;;;1.77;;
51332;SDS011;37417;48.118;11.734;2023-04-23T03:01:08;1.92;;;1.73;;
51332;SDS011;37417;48.118;11.734;2023-04-23T03:03:54;1.75;;;1.35;;
51332;SDS011;37417;48.118;11.734;2023-04-23T03:06:39;2.38;;;1.58;;
51332;SDS011;37417;48.118;11.734;2023-04-23T03:09:26;5.40;;;2.10;;
51332;SDS011;37417;48.118;11.734;2023-04-23T03:12:11;3.60;;;2.03;;
51332;SDS011;37417;48.118;11.734;2023-04-23T03:14:57;2.20;;;1.45;;
51332;SDS011;37417;48.118;11.734;2023-04-23T03:17:43;4.82;;;1.98;;
51332;SDS011;37417;48.118;11.734;2023-04-23T03:20:28;3.22;;;1.80;;
51332;SDS011;37417;48.118;11.734;2023-04-23T03:23:14;3.05;;;1.70;;
51332;SDS011;37417;48.118;11.734;2023-04-23T03:26:00;3.10;;;2.50;;
51332;SDS011;37417;48.118;11.734;2023-04-23T03:28:45;2.90;;;1.83;;
51332;SDS011;37417;48.118;11.734;2023-04-23T03:31:31;3.00;;;1.88;;
51332;SDS011;37417;48.118;11.734;2023-04-23T03:34:17;2.95;;;2.25;;
51332;SDS011;37417;48.118;11.734;2023-04-23T03:37:02;3.60;;;1.65;;
51332;SDS011;37417;48.118;11.734;2023-04-23T03:39:48;2.95;;;1.77;;
51332;SDS011;37417;48.118;11.734;2023-04-23T03:42:34;4.95;;;2.20;;
51332;SDS011;37417;48.118;11.734;2023-04-23T03:45:20;2.25;;;1.90;;
51332;SDS011;37417;48.118;11.734;2023-04-23T03:48:05;4.90;;;2.13;;
51332;SDS011;37417;48.118;11.734;2023-04-23T03:50:51;3.33;;;1.63;;
51332;SDS011;37417;48.118;11.734;2023-04-23T03:53:37;3.97;;;1.80;;
51332;SDS011;37417;48.118;11.734;2023-04-23T03:56:23;2.17;;;1.70;;
51332;SDS011;37417;48.118;11.734;2023-04-23T03:59:08;2.25;;;1.67;;
51332;SDS011;37417;48.118;11.734;2023-04-23T04:01:54;6.03;;;1.75;;
51332;SDS011;37417;48.118;11.734;2023-04-23T04:04:40;1.92;;;1.80;;
51332;SDS011;37417;48.118;11.734;2023-04-23T04:07:27;1.70;;;1.20;;
51332;SDS011;37417;48.118;11.734;2023-04-23T04:10:13;2.42;;;1.52;;
51332;SDS011;37417;48.118;11.734;2023-04-23T04:12:59;2.65;;;1.90;;
51332;SDS011;37417;48.118;11.734;2023-04-23T04:15:45;1.98;;;1.70;;
51332;SDS011;37417;48.118;11.734;2023-04-23T04:18:30;3.63;;;1.70;;
51332;SDS011;37417;48.118;11.734;2023-04-23T04:21:16;5.85;;;1.67;;
51332;SDS011;37417;48.118;11.734;2023-04-23T04:24:03;3.90;;;1.48;;
51332;SDS011;37417;48.118;11.734;2023-04-23T04:26:49;2.42;;;1.90;;
51332;SDS011;37417;48.118;11.734;2023-04-23T04:29:36;3.85;;;2.00;;
51332;SDS011;37417;48.118;11.734;2023-04-23T04:32:25;5.10;;;1.80;;
51332;SDS011;37417;48.118;11.734;2023-04-23T04:35:11;1.92;;;1.80;;
51332;SDS011;37417;48.118;11.734;2023-04-23T04:37:59;4.85;;;1.85;;
51332;SDS011;37417;48.118;11.734;2023-04-23T04:40:45;2.97;;;1.92;;
51332;SDS011;37417;48.118;11.734;2023-04-23T04:43:31;4.82;;;1.88;;
51332;SDS011;37417;48.118;11.734;2023-04-23T04:46:18;3.13;;;1.58;;
51332;SDS011;37417;48.118;11.734;2023-04-23T04:49:07;4.68;;;2.03;;
51332;SDS011;37417;48.118;11.734;2023-04-23T04:51:53;3.65;;;2.15;;
51332;SDS011;37417;48.118;11.734;2023-04-23T04:54:39;2.78;;;2.00;;
51332;SDS011;37417;48.118;11.734;2023-04-23T04:57:25;3.05;;;1.92;;
51332;SDS011;37417;48.118;11.734;2023-04-23T05:00:24;2.65;;;1.85;;
51332;SDS011;37417;48.118;11.734;2023-04-23T05:03:14;6.22;;;2.55;;
51332;SDS011;37417;48.118;11.734;2023-04-23T05:06:00;4.30;;;2.92;;
51332;SDS011;37417;48.118;11.734;2023-04-23T05:08:45;2.60;;;2.25;;
51332;SDS011;37417;48.118;11.734;2023-04-23T05:11:34;3.22;;;2.92;;
51332;SDS011;37417;48.118;11.734;2023-04-23T05:14:20;3.88;;;2.60;;
51332;SDS011;37417;48.118;11.734;2023-04-23T05:17:05;2.83;;;2.53;;
51332;SDS011;37417;48.118;11.734;2023-04-23T05:19:51;5.53;;;2.67;;
51332;SDS011;37417;48.118;11.734;2023-04-23T05:22:37;3.47;;;2.63;;
51332;SDS011;37417;48.118;11.734;2023-04-23T05:25:23;4.25;;;3.05;;
51332;SDS011;37417;48.118;11.734;2023-04-23T05:28:10;3.15;;;2.40;;
51332;SDS011;37417;48.118;11.734;2023-04-23T05:30:55;6.38;;;3.03;;
51332;SDS011;37417;48.118;11.734;2023-04-23T05:33:41;7.25;;;3.38;;
51332;SDS011;37417;48.118;11.734;2023-04-23T05:36:29;4.05;;;2.85;;
51332;SDS011;37417;48.118;11.734;2023-04-23T05:39:15;8.32;;;3.13;;
51332;SDS011;37417;48.118;11.734;2023-04-23T05:42:01;3.53;;;2.67;;
51332;SDS011;37417;48.118;11.734;2023-04-23T05:44:47;3.53;;;2.97;;
51332;SDS011;37417;48.118;11.734;2023-04-23T05:47:32;5.78;;;3.45;;
51332;SDS011;37417;48.118;11.734;2023-04-23T05:50:19;7.07;;;3.55;;
51332;SDS011;37417;48.118;11.734;2023-04-23T05:53:05;3.80;;;3.38;;
51332;SDS011;37417;48.118;11.734;2023-04-23T05:55:51;5.72;;;3.75;;
51332;SDS011;37417;48.118;11.734;2023-04-23T05:58:36;6.43;;;3.72;;
51332;SDS011;37417;48.118;11.734;2023-04-23T06:01:23;4.63;;;3.58;;
51332;SDS011;37417;48.118;11.734;2023-04-23T06:04:09;3.80;;;2.78;;
51332;SDS011;37417;48.118;11.734;2023-04-23T06:06:54;7.03;;;3.40;;
51332;SDS011;37417;48.118;11.734;2023-04-23T06:09:40;4.70;;;3.13;;
51332;SDS011;37417;48.118;11.734;2023-04-23T06:12:26;3.17;;;2.88;;
51332;SDS011;37417;48.118;11.734;2023-04-23T06:15:11;4.88;;;3.25;;
51332;SDS011;37417;48.118;11.734;2023-04-23T06:17:57;6.35;;;3.03;;
51332;SDS011;37417;48.118;11.734;2023-04-23T06:20:43;4.70;;;3.08;;
51332;SDS011;37417;48.118;11.734;2023-04-23T06:23:29;3.10;;;2.80;;
51332;SDS011;37417;48.118;11.734;2023-04-23T06:26:15;5.57;;;2.80;;
51332;SDS011;37417;48.118;11.734;2023-04-23T06:29:01;5.05;;;3.15;;
51332;SDS011;37417;48.118;11.734;2023-04-23T06:31:47;4.07;;;3.03;;
51332;SDS011;37417;48.118;11.734;2023-04-23T06:34:32;3.13;;;2.78;;
51332;SDS011;37417;48.118;11.734;2023-04-23T06:37:18;4.55;;;2.88;;
51332;SDS011;37417;48.118;11.734;2023-04-23T06:40:04;3.03;;;2.72;;
51332;SDS011;37417;48.118;11.734;2023-04-23T06:42:50;4.57;;;3.53;;
51332;SDS011;37417;48.118;11.734;2023-04-23T06:45:37;4.80;;;2.92;;
51332;SDS011;37417;48.118;11.734;2023-04-23T06:48:22;4.25;;;3.22;;
51332;SDS011;37417;48.118;11.734;2023-04-23T06:51:10;4.60;;;3.08;;
51332;SDS011;37417;48.118;11.734;2023-04-23T06:53:56;5.80;;;2.85;;
51332;SDS011;37417;48.118;11.734;2023-04-23T06:56:42;3.17;;;2.85;;
51332;SDS011;37417;48.118;11.734;2023-04-23T06:59:28;6.47;;;3.35;;
51332;SDS011;37417;48.118;11.734;2023-04-23T07:02:14;8.25;;;3.40;;
51332;SDS011;37417;48.118;11.734;2023-04-23T07:04:59;3.55;;;3.22;;
51332;SDS011;37417;48.118;11.734;2023-04-23T07:07:45;6.90;;;3.50;;
51332;SDS011;37417;48.118;11.734;2023-04-23T07:10:31;5.82;;;3.58;;
51332;SDS011;37417;48.118;11.734;2023-04-23T07:13:17;5.32;;;3.80;;
51332;SDS011;37417;48.118;11.734;2023-04-23T07:16:02;6.68;;;3.50;;
51332;SDS011;37417;48.118;11.734;2023-04-23T07:18:48;4.63;;;3.70;;
51332;SDS011;37417;48.118;11.734;2023-04-23T07:21:34;5.65;;;3.42;;
51332;SDS011;37417;48.118;11.734;2023-04-23T07:24:20;4.45;;;3.70;;
51332;SDS011;37417;48.118;11.734;2023-04-23T07:27:05;4.68;;;2.90;;
51332;SDS011;37417;48.118;11.734;2023-04-23T07:29:51;8.18;;;4.03;;
51332;SDS011;37417;48.118;11.734;2023-04-23T07:32:37;5.38;;;3.42;;
51332;SDS011;37417;48.118;11.734;2023-04-23T07:35:22;7.20;;;3.90;;
51332;SDS011;37417;48.118;11.734;2023-04-23T07:38:08;5.10;;;3.80;;
51332;SDS011;37417;48.118;11.734;2023-04-23T07:40:54;4.35;;;3.42;;
51332;SDS011;37417;48.118;11.734;2023-04-23T07:43:39;4.68;;;3.60;;
51332;SDS011;37417;48.118;11.734;2023-04-23T07:46:25;5.03;;;3.38;;
51332;SDS011;37417;48.118;11.734;2023-04-23T07:49:11;3.22;;;2.90;;
51332;SDS011;37417;48.118;11.734;2023-04-23T07:51:56;4.10;;;2.90;;
51332;SDS011;37417;48.118;11.734;2023-04-23T07:54:42;3.60;;;3.15;;
51332;SDS011;37417;48.118;11.734;2023-04-23T07:57:28;4.40;;;3.10;;
51332;SDS011;37417;48.118;11.734;2023-04-23T08:00:14;5.60;;;3.45;;
51332;SDS011;37417;48.118;11.734;2023-04-23T08:03:00;4.30;;;3.53;;
51332;SDS011;37417;48.118;11.734;2023-04-23T08:05:45;5.88;;;2.97;;
51332;SDS011;37417;48.118;11.734;2023-04-23T08:08:31;3.35;;;2.60;;
51332;SDS011;37417;48.118;11.734;2023-04-23T08:11:17;4.03;;;2.72;;
51332;SDS011;37417;48.118;11.734;2023-04-23T08:14:03;2.65;;;2.42;;
51332;SDS011;37417;48.118;11.734;2023-04-23T08:16:48;3.28;;;2.97;;
51332;SDS011;37417;48.118;11.734;2023-04-23T08:19:34;3.17;;;2.83;;
51332;SDS011;37417;48.118;11.734;2023-04-23T08:22:20;5.43;;;3.00;;
51332;SDS011;37417;48.118;11.734;2023-04-23T08:25:05;3.45;;;3.08;;
51332;SDS011;37417;48.118;11.734;2023-04-23T08:27:51;3.08;;;2.78;;
51332;SDS011;37417;48.118;11.734;2023-04-23T08:30:37;3.28;;;2.97;;
51332;SDS011;37417;48.118;11.734;2023-04-23T08:33:23;2.83;;;2.45;;
51332;SDS011;37417;48.118;11.734;2023-04-23T08:36:09;4.03;;;2.67;;
51332;SDS011;37417;48.118;11.734;2023-04-23T08:38:55;3.17;;;2.55;;
51332;SDS011;37417;48.118;11.734;2023-04-23T08:41:40;3.85;;;2.47;;
51332;SDS011;37417;48.118;11.734;2023-04-23T08:44:28;2.83;;;2.40;;
51332;SDS011;37417;48.118;11.734;2023-04-23T08:47:16;2.42;;;2.22;;
51332;SDS011;37417;48.118;11.734;2023-04-23T08:50:02;3.20;;;2.20;;
51332;SDS011;37417;48.118;11.734;2023-04-23T08:52:49;3.08;;;1.90;;
51332;SDS011;37417;48.118;11.734;2023-04-23T08:55:38;4.05;;;2.22;;
51332;SDS011;37417;48.118;11.734;2023-04-23T08:58:24;2.63;;;2.40;;
51332;SDS011;37417;48.118;11.734;2023-04-23T09:01:12;3.58;;;1.90;;
51332;SDS011;37417;48.118;11.734;2023-04-23T09:03:59;3.33;;;1.98;;
51332;SDS011;37417;48.118;11.734;2023-04-23T09:06:45;1.77;;;1.67;;
51332;SDS011;37417;48.118;11.734;2023-04-23T09:09:31;3.53;;;1.92;;
51332;SDS011;37417;48.118;11.734;2023-04-23T09:12:18;1.95;;;1.45;;
51332;SDS011;37417;48.118;11.734;2023-04-23T09:15:05;3.22;;;1.30;;
51332;SDS011;37417;48.118;11.734;2023-04-23T09:17:55;3.35;;;1.33;;
51332;SDS011;37417;48.118;11.734;2023-04-23T09:20:43;2.83;;;1.73;;
51332;SDS011;37417;48.118;11.734;2023-04-23T09:23:29;1.77;;;1.58;;
51332;SDS011;37417;48.118;11.734;2023-04-23T09:26:19;2.00;;;1.80;;
51332;SDS011;37417;48.118;11.734;2023-04-23T09:29:12;1.60;;;1.50;;
51332;SDS011;37417;48.118;11.734;2023-04-23T09:32:05;2.00;;;1.42;;
51332;SDS011;37417;48.118;11.734;2023-04-23T09:34:55;2.22;;;1.88;;
51332;SDS011;37417;48.118;11.734;2023-04-23T09:37:41;1.50;;;1.30;;
51332;SDS011;37417;48.118;11.734;2023-04-23T09:40:32;1.83;;;1.50;;
51332;SDS011;37417;48.118;11.734;2023-04-23T09:43:18;1.40;;;1.30;;
51332;SDS011;37417;48.118;11.734;2023-04-23T09:46:03;1.33;;;1.20;;
51332;SDS011;37417;48.118;11.734;2023-04-23T09:48:49;1.38;;;1.23;;
51332;SDS011;37417;48.118;11.734;2023-04-23T09:51:37;2.05;;;1.20;;
51332;SDS011;37417;48.118;11.734;2023-04-23T09:54:24;1.23;;;1.13;;
51332;SDS011;37417;48.118;11.734;2023-04-23T09:57:11;1.60;;;1.45;;
51332;SDS011;37417;48.118;11.734;2023-04-23T09:59:57;1.40;;;1.10;;
51332;SDS011;37417;48.118;11.734;2023-04-23T10:02:49;1.80;;;1.50;;
51332;SDS011;37417;48.118;11.734;2023-04-23T10:05:41;2.33;;;1.30;;
51332;SDS011;37417;48.118;11.734;2023-04-23T10:08:27;1.77;;;1.63;;
51332;SDS011;37417;48.118;11.734;2023-04-23T10:11:14;2.20;;;1.80;;
51332;SDS011;37417;48.118;11.734;2023-04-23T10:14:00;2.53;;;1.90;;
51332;SDS011;37417;48.118;11.734;2023-04-23T10:16:46;2.20;;;1.95;;
51332;SDS011;37417;48.118;11.734;2023-04-23T10:19:36;2.90;;;1.67;;
51332;SDS011;37417;48.118;11.734;2023-04-23T10:22:25;2.65;;;1.38;;
51332;SDS011;37417;48.118;11.734;2023-04-23T10:25:13;2.10;;;1.90;;
51332;SDS011;37417;48.118;11.734;2023-04-23T10:27:59;2.20;;;1.67;;
51332;SDS011;37417;48.118;11.734;2023-04-23T10:30:48;3.60;;;1.75;;
51332;SDS011;37417;48.118;11.734;2023-04-23T10:33:34;2.03;;;1.75;;
51332;SDS011;37417;48.118;11.734;2023-04-23T10:36:21;1.85;;;1.63;;
51332;SDS011;37417;48.118;11.734;2023-04-23T10:39:09;3.95;;;1.52;;
51332;SDS011;37417;48.118;11.734;2023-04-23T10:41:57;1.50;;;1.38;;
51332;SDS011;37417;48.118;11.734;2023-04-23T10:44:43;1.25;;;0.98;;
51332;SDS011;37417;48.118;11.734;2023-04-23T10:47:29;1.70;;;1.35;;
51332;SDS011;37417;48.118;11.734;2023-04-23T10:53:16;1.13;;;1.00;;
51332;SDS011;37417;48.118;11.734;2023-04-23T10:56:06;1.27;;;1.17;;
51332;SDS011;37417;48.118;11.734;2023-04-23T10:58:52;1.55;;;1.10;;
51332;SDS011;37417;48.118;11.734;2023-04-23T11:01:38;1.40;;;0.98;;
51332;SDS011;37417;48.118;11.734;2023-04-23T11:04:24;1.48;;;0.73;;
51332;SDS011;37417;48.118;11.734;2023-04-23T11:07:12;1.10;;;1.00;;
51332;SDS011;37417;48.118;11.734;2023-04-23T11:09:59;1.92;;;0.90;;
51332;SDS011;37417;48.118;11.734;2023-04-23T11:12:55;1.48;;;0.85;;
51332;SDS011;37417;48.118;11.734;2023-04-23T11:15:40;1.02;;;0.80;;
51332;SDS011;37417;48.118;11.734;2023-04-23T11:18:26;3.25;;;1.05;;
51332;SDS011;37417;48.118;11.734;2023-04-23T11:21:12;1.17;;;0.88;;
51332;SDS011;37417;48.118;11.734;2023-04-23T11:24:00;0.55;;;0.55;;
51332;SDS011;37417;48.118;11.734;2023-04-23T11:26:46;1.52;;;1.30;;
51332;SDS011;37417;48.118;11.734;2023-04-23T11:29:32;1.45;;;0.88;;
51332;SDS011;37417;48.118;11.734;2023-04-23T11:32:18;0.88;;;0.70;;
51332;SDS011;37417;48.118;11.734;2023-04-23T11:35:06;1.48;;;0.88;;
51332;SDS011;37417;48.118;11.734;2023-04-23T11:37:53;1.25;;;1.15;;
51332;SDS011;37417;48.118;11.734;2023-04-23T11:40:39;1.25;;;0.90;;
51332;SDS011;37417;48.118;11.734;2023-04-23T11:43:27;0.75;;;0.75;;
51332;SDS011;37417;48.118;11.734;2023-04-23T11:46:13;1.50;;;1.00;;
51332;SDS011;37417;48.118;11.734;2023-04-23T11:48:59;0.90;;;0.82;;
51332;SDS011;37417;48.118;11.734;2023-04-23T11:51:45;2.30;;;0.95;;
51332;SDS011;37417;48.118;11.734;2023-04-23T11:54:32;1.17;;;1.08;;
51332;SDS011;37417;48.118;11.734;2023-04-23T11:57:18;0.95;;;0.90;;
51332;SDS011;37417;48.118;11.734;2023-04-23T12:00:24;1.20;;;0.90;;
51332;SDS011;37417;48.118;11.734;2023-04-23T12:03:11;1.83;;;0.98;;
51332;SDS011;37417;48.118;11.734;2023-04-23T12:05:58;2.78;;;1.42;;
51332;SDS011;37417;48.118;11.734;2023-04-23T12:08:45;1.70;;;1.30;;
51332;SDS011;37417;48.118;11.734;2023-04-23T12:11:31;3.67;;;1.60;;
51332;SDS011;37417;48.118;11.734;2023-04-23T12:14:23;1.30;;;1.20;;
51332;SDS011;37417;48.118;11.734;2023-04-23T12:17:13;1.63;;;1.20;;
51332;SDS011;37417;48.118;11.734;2023-04-23T12:20:02;1.73;;;1.23;;
51332;SDS011;37417;48.118;11.734;2023-04-23T12:22:48;2.17;;;1.58;;
51332;SDS011;37417;48.118;11.734;2023-04-23T12:25:34;2.63;;;1.25;;
51332;SDS011;37417;48.118;11.734;2023-04-23T12:28:23;5.38;;;1.60;;
51332;SDS011;37417;48.118;11.734;2023-04-23T12:31:10;2.75;;;1.20;;
51332;SDS011;37417;48.118;11.734;2023-04-23T12:34:01;2.05;;;1.35;;
51332;SDS011;37417;48.118;11.734;2023-04-23T12:36:47;1.10;;;1.10;;
51332;SDS011;37417;48.118;11.734;2023-04-23T12:39:34;1.33;;;1.23;;
51332;SDS011;37417;48.118;11.734;2023-04-23T12:42:20;3.17;;;1.20;;
51332;SDS011;37417;48.118;11.734;2023-04-23T12:45:07;1.95;;;1.67;;
51332;SDS011;37417;48.118;11.734;2023-04-23T12:47:54;2.67;;;1.80;;
51332;SDS011;37417;48.118;11.734;2023-04-23T12:50:40;2.88;;;1.60;;
51332;SDS011;37417;48.118;11.734;2023-04-23T12:53:25;2.45;;;1.75;;
51332;SDS011;37417;48.118;11.734;2023-04-23T12:56:12;4.75;;;1.67;;
51332;SDS011;37417;48.118;11.734;2023-04-23T12:58:57;1.75;;;1.58;;
51332;SDS011;37417;48.118;11.734;2023-04-23T13:01:46;1.70;;;1.60;;
51332;SDS011;37417;48.118;11.734;2023-04-23T13:04:32;1.15;;;1.05;;
51332;SDS011;37417;48.118;11.734;2023-04-23T13:07:20;4.90;;;1.70;;
51332;SDS011;37417;48.118;11.734;2023-04-23T13:10:06;5.55;;;2.00;;
51332;SDS011;37417;48.118;11.734;2023-04-23T13:12:52;3.10;;;2.03;;
51332;SDS011;37417;48.118;11.734;2023-04-23T13:15:37;2.20;;;1.98;;
51332;SDS011;37417;48.118;11.734;2023-04-23T13:18:23;2.50;;;1.00;;
51332;SDS011;37417;48.118;11.734;2023-04-23T13:21:09;2.60;;;1.65;;
51332;SDS011;37417;48.118;11.734;2023-04-23T13:23:55;2.22;;;1.50;;
51332;SDS011;37417;48.118;11.734;2023-04-23T13:26:41;3.72;;;1.52;;
51332;SDS011;37417;48.118;11.734;2023-04-23T13:29:27;5.20;;;1.92;;
51332;SDS011;37417;48.118;11.734;2023-04-23T13:32:13;2.35;;;1.83;;
51332;SDS011;37417;48.118;11.734;2023-04-23T13:35:00;4.22;;;1.55;;
51332;SDS011;37417;48.118;11.734;2023-04-23T13:37:49;1.65;;;1.55;;
51332;SDS011;37417;48.118;11.734;2023-04-23T13:40:34;1.65;;;1.25;;
51332;SDS011;37417;48.118;11.734;2023-04-23T13:43:20;1.90;;;1.60;;
51332;SDS011;37417;48.118;11.734;2023-04-23T13:46:06;2.50;;;1.40;;
51332;SDS011;37417;48.118;11.734;2023-04-23T13:48:52;2.92;;;1.67;;
51332;SDS011;37417;48.118;11.734;2023-04-23T13:51:38;1.67;;;1.33;;
51332;SDS011;37417;48.118;11.734;2023-04-23T13:54:24;2.17;;;1.27;;
51332;SDS011;37417;48.118;11.734;2023-04-23T13:57:13;1.75;;;1.45;;
51332;SDS011;37417;48.118;11.734;2023-04-23T13:59:59;1.55;;;1.35;;
51332;SDS011;37417;48.118;11.734;2023-04-23T14:02:45;2.30;;;1.30;;
51332;SDS011;37417;48.118;11.734;2023-04-23T14:05:30;2.80;;;1.60;;
51332;SDS011;37417;48.118;11.734;2023-04-23T14:08:16;3.03;;;1.40;;
51332;SDS011;37417;48.118;11.734;2023-04-23T14:11:02;4.82;;;1.70;;
51332;SDS011;37417;48.118;11.734;2023-04-23T14:13:48;1.63;;;1.40;;
51332;SDS011;37417;48.118;11.734;2023-04-23T14:16:34;2.17;;;1.60;;
51332;SDS011;37417;48.118;11.734;2023-04-23T14:19:20;1.58;;;1.48;;
51332;SDS011;37417;48.118;11.734;2023-04-23T14:22:06;8.27;;;1.67;;
51332;SDS011;37417;48.118;11.734;2023-04-23T14:24:55;2.03;;;1.73;;
51332;SDS011;37417;48.118;11.734;2023-04-23T14:27:45;1.60;;;1.48;;
51332;SDS011;37417;48.118;11.734;2023-04-23T14:30:35;1.88;;;1.50;;
51332;SDS011;37417;48.118;11.734;2023-04-23T14:33:20;2.35;;;1.40;;
51332;SDS011;37417;48.118;11.734;2023-04-23T14:36:06;1.63;;;1.10;;
51332;SDS011;37417;48.118;11.734;2023-04-23T14:38:52;4.07;;;1.50;;
51332;SDS011;37417;48.118;11.734;2023-04-23T14:41:38;2.47;;;1.80;;
51332;SDS011;37417;48.118;11.734;2023-04-23T14:44:25;2.70;;;1.58;;
51332;SDS011;37417;48.118;11.734;2023-04-23T14:47:11;2.33;;;1.52;;
51332;SDS011;37417;48.118;11.734;2023-04-23T14:49:56;2.08;;;1.70;;
51332;SDS011;37417;48.118;11.734;2023-04-23T14:52:48;3.70;;;1.67;;
51332;SDS011;37417;48.118;11.734;2023-04-23T14:55:34;2.28;;;1.85;;
51332;SDS011;37417;48.118;11.734;2023-04-23T14:58:19;2.80;;;1.77;;
51332;SDS011;37417;48.118;11.734;2023-04-23T15:01:05;3.78;;;1.80;;
51332;SDS011;37417;48.118;11.734;2023-04-23T15:03:51;1.80;;;1.67;;
51332;SDS011;37417;48.118;11.734;2023-04-23T15:06:37;3.10;;;2.17;;
51332;SDS011;37417;48.118;11.734;2023-04-23T15:09:24;2.28;;;2.08;;
51332;SDS011;37417;48.118;11.734;2023-04-23T15:12:36;3.15;;;2.28;;
51332;SDS011;37417;48.118;11.734;2023-04-23T15:15:36;3.60;;;2.03;;
51332;SDS011;37417;48.118;11.734;2023-04-23T15:18:22;3.65;;;2.13;;
51332;SDS011;37417;48.118;11.734;2023-04-23T15:21:08;4.22;;;2.42;;
51332;SDS011;37417;48.118;11.734;2023-04-23T15:23:54;2.60;;;2.40;;
51332;SDS011;37417;48.118;11.734;2023-04-23T15:26:39;3.22;;;2.22;;
51332;SDS011;37417;48.118;11.734;2023-04-23T15:29:25;2.33;;;2.13;;
51332;SDS011;37417;48.118;11.734;2023-04-23T15:32:11;3.25;;;2.35;;
51332;SDS011;37417;48.118;11.734;2023-04-23T15:34:56;3.80;;;2.60;;
51332;SDS011;37417;48.118;11.734;2023-04-23T15:37:42;2.83;;;2.35;;
51332;SDS011;37417;48.118;11.734;2023-04-23T15:40:28;2.42;;;2.22;;
51332;SDS011;37417;48.118;11.734;2023-04-23T15:43:14;3.70;;;2.55;;
51332;SDS011;37417;48.118;11.734;2023-04-23T15:46:00;6.72;;;2.75;;
51332;SDS011;37417;48.118;11.734;2023-04-23T15:48:46;4.55;;;2.50;;
51332;SDS011;37417;48.118;11.734;2023-04-23T15:51:31;7.22;;;3.15;;
51332;SDS011;37417;48.118;11.734;2023-04-23T15:54:17;4.05;;;2.55;;
51332;SDS011;37417;48.118;11.734;2023-04-23T15:57:03;5.38;;;2.88;;
51332;SDS011;37417;48.118;11.734;2023-04-23T15:59:48;7.13;;;3.40;;
51332;SDS011;37417;48.118;11.734;2023-04-23T16:02:34;6.38;;;3.20;;
51332;SDS011;37417;48.118;11.734;2023-04-23T16:05:20;8.57;;;3.00;;
51332;SDS011;37417;48.118;11.734;2023-04-23T16:08:06;5.00;;;2.83;;
51332;SDS011;37417;48.118;11.734;2023-04-23T16:10:52;6.78;;;2.80;;
51332;SDS011;37417;48.118;11.734;2023-04-23T16:13:39;4.03;;;2.38;;
51332;SDS011;37417;48.118;11.734;2023-04-23T16:16:24;3.88;;;2.20;;
51332;SDS011;37417;48.118;11.734;2023-04-23T16:19:10;7.50;;;2.55;;
51332;SDS011;37417;48.118;11.734;2023-04-23T16:21:56;4.28;;;1.90;;
51332;SDS011;37417;48.118;11.734;2023-04-23T16:24:42;2.17;;;1.52;;
51332;SDS011;37417;48.118;11.734;2023-04-23T16:27:28;3.15;;;1.33;;
51332;SDS011;37417;48.118;11.734;2023-04-23T16:30:14;5.20;;;1.90;;